Time;durP1;ratioP1;P1;durP2;ratioP2;P2;SDS_P1;SDS_P2;PMS_P1;PMS_P2;Temp;Humidity;BMP_temperature;BMP_pressure;BME280_temperature;BME280_humidity;BME280_pressure;Samples;Min_cycle;Max_cycle;Signal;HPM_P1;HPM_P2
2024/02/23 00:02:24;;;;;;;5.03;2.30;;;;;;;;;;10109987;28;20460;-75
2024/02/23 00:07:19;;;;;;;3.45;2.55;;;;;;;;;;10105652;28;20045;-75
2024/02/23 00:12:14;;;;;;;2.33;2.13;;;;;;;;;;10109748;28;20068;-75
2024/02/23 00:17:08;;;;;;;2.47;2.05;;;;;;;;;;10110081;28;20057;-75
2024/02/23 00:22:03;;;;;;;2.67;1.85;;;;;;;;;;10111603;28;20049;-75
2024/02/23 00:27:01;;;;;;;3.25;2.15;;;;;;;;;;10108791;28;20496;-74
2024/02/23 00:31:56;;;;;;;3.53;2.30;;;;;;;;;;10108607;28;20087;-75
2024/02/23 00:36:51;;;;;;;4.45;2.53;;;;;;;;;;10108359;28;20083;-75
2024/02/23 00:41:46;;;;;;;6.22;2.60;;;;;;;;;;10106790;28;20505;-77
2024/02/23 00:46:40;;;;;;;3.20;1.90;;;;;;;;;;10108206;28;20132;-80
2024/02/23 00:51:34;;;;;;;2.03;1.83;;;;;;;;;;10107865;28;20408;-75
2024/02/23 00:56:28;;;;;;;2.83;1.70;;;;;;;;;;10107780;28;20049;-75
2024/02/23 01:01:37;;;;;;;1.60;1.45;;;;;;;;;;10106769;28;20049;-75
2024/02/23 01:06:31;;;;;;;2.40;1.88;;;;;;;;;;10101453;28;20087;-76
2024/02/23 01:11:24;;;;;;;4.40;1.63;;;;;;;;;;10106898;28;20053;-74
2024/02/23 01:16:19;;;;;;;9.60;3.78;;;;;;;;;;10107176;28;20045;-76
2024/02/23 01:21:14;;;;;;;2.25;1.75;;;;;;;;;;10106618;28;20068;-76
2024/02/23 01:26:08;;;;;;;1.88;1.67;;;;;;;;;;10106314;28;20057;-76
2024/02/23 01:31:04;;;;;;;1.98;1.85;;;;;;;;;;10106501;28;20083;-76
2024/02/23 01:35:58;;;;;;;1.50;1.40;;;;;;;;;;10105003;28;20132;-76
2024/02/23 01:40:51;;;;;;;2.78;1.70;;;;;;;;;;10105724;28;20083;-77
2024/02/23 01:45:46;;;;;;;1.75;1.52;;;;;;;;;;10107158;28;20132;-77
2024/02/23 01:50:40;;;;;;;1.80;1.40;;;;;;;;;;10105190;28;20057;-77
2024/02/23 01:55:34;;;;;;;1.48;1.38;;;;;;;;;;10105510;28;20045;-76
2024/02/23 02:00:31;;;;;;;2.42;1.75;;;;;;;;;;10104720;28;20047;-76
2024/02/23 02:05:25;;;;;;;2.15;1.67;;;;;;;;;;10106476;28;20048;-77
2024/02/23 02:10:21;;;;;;;1.45;1.30;;;;;;;;;;10104560;28;20057;-76
2024/02/23 02:15:14;;;;;;;4.10;2.20;;;;;;;;;;10104339;28;20135;-77
2024/02/23 02:20:12;;;;;;;1.63;1.42;;;;;;;;;;10104362;28;20053;-76
2024/02/23 02:25:08;;;;;;;3.00;1.90;;;;;;;;;;10104527;28;20049;-77
2024/02/23 02:30:02;;;;;;;4.18;1.40;;;;;;;;;;10104007;28;20049;-77
2024/02/23 02:34:57;;;;;;;1.50;1.40;;;;;;;;;;10102556;28;20056;-76
2024/02/23 02:39:51;;;;;;;2.53;1.60;;;;;;;;;;10102724;28;20044;-76
2024/02/23 02:44:45;;;;;;;2.33;1.50;;;;;;;;;;10103275;28;20088;-77
2024/02/23 02:49:40;;;;;;;2.88;1.52;;;;;;;;;;10101984;28;20075;-75
2024/02/23 02:54:34;;;;;;;2.15;1.60;;;;;;;;;;10103487;28;20047;-76
2024/02/23 02:59:28;;;;;;;2.08;1.30;;;;;;;;;;10103274;28;20411;-77
2024/02/23 03:04:22;;;;;;;2.78;1.80;;;;;;;;;;10102953;28;20102;-76
2024/02/23 03:09:16;;;;;;;1.63;1.52;;;;;;;;;;10102981;28;20052;-75
2024/02/23 03:14:11;;;;;;;2.42;2.08;;;;;;;;;;10102073;28;20049;-78
2024/02/23 03:19:04;;;;;;;1.95;1.60;;;;;;;;;;10102791;28;20053;-75
2024/02/23 03:23:58;;;;;;;3.78;1.75;;;;;;;;;;10102161;28;20508;-77
2024/02/23 03:28:53;;;;;;;3.88;2.20;;;;;;;;;;10107188;28;20048;-77
2024/02/23 03:33:47;;;;;;;11.13;3.22;;;;;;;;;;10102101;28;20051;-77
2024/02/23 03:38:41;;;;;;;5.75;2.50;;;;;;;;;;10110612;28;20057;-78
2024/02/23 03:43:38;;;;;;;114.32;24.88;;;;;;;;;;10108912;28;20065;-76
2024/02/23 03:48:32;;;;;;;3.28;2.28;;;;;;;;;;10109254;28;20518;-76
2024/02/23 03:53:26;;;;;;;2.50;2.10;;;;;;;;;;10109914;28;20106;-77
2024/02/23 03:58:20;;;;;;;5.90;2.92;;;;;;;;;;10109991;28;20451;-76
2024/02/23 04:03:14;;;;;;;3.10;2.80;;;;;;;;;;10108209;28;20162;-77
2024/02/23 04:08:07;;;;;;;3.33;2.40;;;;;;;;;;10109378;28;20504;-78
2024/02/23 04:13:01;;;;;;;6.25;3.25;;;;;;;;;;10108971;28;20067;-75
2024/02/23 04:17:55;;;;;;;6.82;3.35;;;;;;;;;;10109067;28;20049;-77
2024/02/23 04:22:49;;;;;;;8.05;4.15;;;;;;;;;;10108461;28;20050;-77
2024/02/23 04:27:43;;;;;;;4.35;2.80;;;;;;;;;;10109867;28;20457;-79
2024/02/23 04:32:38;;;;;;;6.00;4.03;;;;;;;;;;10108616;28;20052;-77
2024/02/23 04:37:33;;;;;;;7.45;3.22;;;;;;;;;;10108513;28;20041;-77
2024/02/23 04:42:29;;;;;;;5.72;3.97;;;;;;;;;;10107781;28;20061;-77
2024/02/23 04:47:24;;;;;;;6.43;3.45;;;;;;;;;;10104809;28;20133;-80
2024/02/23 04:52:20;;;;;;;7.45;3.17;;;;;;;;;;10099419;28;20095;-76
2024/02/23 04:57:15;;;;;;;6.90;4.13;;;;;;;;;;10103561;28;20084;-76
2024/02/23 05:02:13;;;;;;;5.28;2.85;;;;;;;;;;10107728;28;20397;-75
2024/02/23 05:07:07;;;;;;;4.13;3.40;;;;;;;;;;10106465;28;20060;-75
2024/02/23 05:12:01;;;;;;;4.40;2.42;;;;;;;;;;10107201;28;20055;-77
2024/02/23 05:16:55;;;;;;;4.80;2.83;;;;;;;;;;10107286;28;20080;-75
2024/02/23 05:21:50;;;;;;;6.38;3.30;;;;;;;;;;10106428;28;20048;-75
2024/02/23 05:26:44;;;;;;;6.95;3.50;;;;;;;;;;10106842;28;20060;-77
2024/02/23 05:31:46;;;;;;;4.00;2.55;;;;;;;;;;10104914;28;20068;-75
2024/02/23 05:36:40;;;;;;;4.82;3.20;;;;;;;;;;10104468;28;20053;-75
2024/02/23 05:41:34;;;;;;;4.57;2.92;;;;;;;;;;10105710;28;20049;-75
2024/02/23 05:46:28;;;;;;;5.80;3.25;;;;;;;;;;10104710;28;20052;-75
2024/02/23 05:51:22;;;;;;;6.50;3.10;;;;;;;;;;10103365;28;20409;-76
2024/02/23 05:56:16;;;;;;;5.35;3.22;;;;;;;;;;10096103;28;20095;-74
2024/02/23 06:01:10;;;;;;;4.25;3.10;;;;;;;;;;10107685;28;20053;-78
2024/02/23 06:06:09;;;;;;;6.72;3.08;;;;;;;;;;10108140;28;20067;-77
2024/02/23 06:11:04;;;;;;;3.53;2.28;;;;;;;;;;10107658;28;20136;-77
2024/02/23 06:15:57;;;;;;;12.68;9.73;;;;;;;;;;10094193;28;20041;-82
2024/02/23 06:20:52;;;;;;;4.07;2.97;;;;;;;;;;10078164;28;20402;-80
2024/02/23 06:25:46;;;;;;;7.13;2.80;;;;;;;;;;10089990;28;20523;-81
2024/02/23 06:30:40;;;;;;;4.82;2.38;;;;;;;;;;10084025;28;20103;-88
2024/02/23 06:35:34;;;;;;;4.75;3.13;;;;;;;;;;10099163;28;20531;-81
2024/02/23 06:40:28;;;;;;;4.78;3.05;;;;;;;;;;10098109;28;20047;-78
2024/02/23 06:45:38;;;;;;;24.85;16.08;;;;;;;;;;10097340;28;20052;-77
2024/02/23 06:50:32;;;;;;;15.18;9.48;;;;;;;;;;10087255;28;20056;-76
2024/02/23 06:55:26;;;;;;;6.00;3.42;;;;;;;;;;10095739;28;20392;-76
2024/02/23 07:00:21;;;;;;;4.25;3.50;;;;;;;;;;10099100;28;20049;-78
2024/02/23 07:05:16;;;;;;;4.63;3.03;;;;;;;;;;10104091;28;20053;-76
2024/02/23 07:10:11;;;;;;;7.22;3.53;;;;;;;;;;10102007;28;20059;-76
2024/02/23 07:15:07;;;;;;;7.68;3.97;;;;;;;;;;10102843;28;20053;-75
2024/02/23 07:20:05;;;;;;;35.05;23.25;;;;;;;;;;10100896;28;20460;-74
2024/02/23 07:25:01;;;;;;;14.48;11.00;;;;;;;;;;10099696;28;20045;-75
2024/02/23 07:29:55;;;;;;;5.07;2.60;;;;;;;;;;10100638;28;20111;-75
2024/02/23 07:34:49;;;;;;;4.20;3.20;;;;;;;;;;10104275;28;20041;-76
2024/02/23 07:39:44;;;;;;;3.45;2.47;;;;;;;;;;10100275;28;20107;-76
2024/02/23 07:44:39;;;;;;;2.50;1.98;;;;;;;;;;10097171;28;20111;-75
2024/02/23 07:49:32;;;;;;;2.65;1.75;;;;;;;;;;10101496;28;20449;-75
2024/02/23 07:54:27;;;;;;;11.90;7.15;;;;;;;;;;10102007;28;20103;-75
2024/02/23 07:59:21;;;;;;;11.75;8.20;;;;;;;;;;10102217;28;20106;-76
2024/02/23 08:04:16;;;;;;;9.35;7.05;;;;;;;;;;10103463;28;20052;-76
2024/02/23 08:09:10;;;;;;;8.95;6.95;;;;;;;;;;10099994;28;20049;-74
2024/02/23 08:14:04;;;;;;;10.13;7.90;;;;;;;;;;10108686;28;20408;-75
2024/02/23 08:18:58;;;;;;;8.55;6.57;;;;;;;;;;10111118;28;20132;-75
2024/02/23 08:23:53;;;;;;;7.53;5.82;;;;;;;;;;10117971;28;20045;-76
2024/02/23 08:28:47;;;;;;;6.38;5.55;;;;;;;;;;10107436;28;20051;-76
2024/02/23 08:33:41;;;;;;;5.82;4.38;;;;;;;;;;10109893;28;20605;-76
2024/02/23 08:38:35;;;;;;;6.30;5.68;;;;;;;;;;10106970;28;20075;-76
2024/02/23 08:43:29;;;;;;;6.13;5.53;;;;;;;;;;10106271;28;20055;-76
2024/02/23 08:48:23;;;;;;;6.20;5.60;;;;;;;;;;10107789;28;20107;-76
2024/02/23 08:53:17;;;;;;;6.57;5.55;;;;;;;;;;10107568;28;20072;-76
2024/02/23 08:58:11;;;;;;;7.55;5.95;;;;;;;;;;10110383;28;20455;-77
2024/02/23 09:03:05;;;;;;;6.93;6.22;;;;;;;;;;10110040;28;20520;-76
2024/02/23 09:07:59;;;;;;;5.93;5.32;;;;;;;;;;10106886;28;20102;-75
2024/02/23 09:12:53;;;;;;;6.30;4.85;;;;;;;;;;10105259;28;20132;-75
2024/02/23 09:17:47;;;;;;;7.18;5.30;;;;;;;;;;10107048;28;20158;-76
2024/02/23 09:22:41;;;;;;;6.68;4.75;;;;;;;;;;10105826;28;20083;-76
2024/02/23 09:27:40;;;;;;;5.75;4.88;;;;;;;;;;10106109;28;20501;-75
2024/02/23 09:32:34;;;;;;;5.03;4.53;;;;;;;;;;10098228;28;20099;-77
2024/02/23 09:37:27;;;;;;;4.75;4.25;;;;;;;;;;10106449;28;20139;-77
2024/02/23 09:42:26;;;;;;;4.85;4.40;;;;;;;;;;10105718;28;20075;-77
2024/02/23 09:47:25;;;;;;;4.80;4.38;;;;;;;;;;10104258;28;20060;-76
2024/02/23 09:52:19;;;;;;;3.95;3.65;;;;;;;;;;10105193;28;20045;-77
2024/02/23 09:57:14;;;;;;;4.70;3.67;;;;;;;;;;10103890;28;20053;-77
2024/02/23 10:02:12;;;;;;;3.75;3.40;;;;;;;;;;10105136;28;20120;-76
2024/02/23 10:07:06;;;;;;;3.47;3.00;;;;;;;;;;10103950;28;20051;-76
2024/02/23 10:12:01;;;;;;;3.70;3.40;;;;;;;;;;10105268;28;20075;-77
2024/02/23 10:16:56;;;;;;;2.90;2.70;;;;;;;;;;10103632;28;20075;-77
2024/02/23 10:21:51;;;;;;;8.32;3.60;;;;;;;;;;10104287;28;20060;-79
2024/02/23 10:26:45;;;;;;;2.83;2.25;;;;;;;;;;10102714;28;20410;-77
2024/02/23 10:31:39;;;;;;;2.60;2.03;;;;;;;;;;10104140;28;20049;-77
2024/02/23 10:36:33;;;;;;;2.10;1.90;;;;;;;;;;10102408;28;20063;-77
2024/02/23 10:41:28;;;;;;;2.60;2.40;;;;;;;;;;10103951;28;20075;-77
2024/02/23 10:46:22;;;;;;;2.22;1.70;;;;;;;;;;10102480;28;20049;-78
2024/02/23 10:51:16;;;;;;;2.70;1.85;;;;;;;;;;10103377;28;20049;-78
2024/02/23 10:56:13;;;;;;;1.85;1.75;;;;;;;;;;10102018;28;20057;-78
2024/02/23 11:01:08;;;;;;;2.10;1.80;;;;;;;;;;10099503;28;20385;-77
2024/02/23 11:06:07;;;;;;;2.60;2.40;;;;;;;;;;10103135;28;20053;-77
2024/02/23 11:11:13;;;;;;;2.23;2.03;;;;;;;;;;10104901;28;20048;-77
2024/02/23 11:16:10;;;;;;;3.03;2.72;;;;;;;;;;10111664;28;20053;-76
2024/02/23 11:21:06;;;;;;;2.17;1.98;;;;;;;;;;10102404;28;20053;-77
2024/02/23 11:26:02;;;;;;;4.07;2.00;;;;;;;;;;10101093;28;20072;-77
2024/02/23 11:30:57;;;;;;;4.97;3.90;;;;;;;;;;10093197;28;20053;-77
2024/02/23 11:35:52;;;;;;;2.97;2.20;;;;;;;;;;10101719;28;20075;-76
2024/02/23 11:40:46;;;;;;;2.28;1.90;;;;;;;;;;10102397;28;20049;-77
2024/02/23 11:45:41;;;;;;;1.42;1.33;;;;;;;;;;10102700;28;20057;-78
2024/02/23 11:50:35;;;;;;;2.55;1.70;;;;;;;;;;10110310;28;20051;-78
2024/02/23 11:55:29;;;;;;;1.73;1.63;;;;;;;;;;10110280;28;20099;-79
2024/02/23 12:00:24;;;;;;;2.67;2.47;;;;;;;;;;10109778;28;20060;-80
2024/02/23 12:05:18;;;;;;;6.13;5.53;;;;;;;;;;10108468;28;20118;-80
2024/02/23 12:10:11;;;;;;;3.08;2.67;;;;;;;;;;10108355;28;20037;-78
2024/02/23 12:15:07;;;;;;;5.10;4.60;;;;;;;;;;10108157;28;20061;-79
2024/02/23 12:20:03;;;;;;;3.75;2.80;;;;;;;;;;10123273;28;20071;-79
2024/02/23 12:24:59;;;;;;;5.63;4.15;;;;;;;;;;10105988;28;20053;-79
2024/02/23 12:29:55;;;;;;;4.55;4.15;;;;;;;;;;10108192;28;20098;-79
2024/02/23 12:34:49;;;;;;;2.75;1.92;;;;;;;;;;10108866;28;20049;-80
2024/02/23 12:39:43;;;;;;;6.68;5.63;;;;;;;;;;10107671;28;20051;-79
2024/02/23 12:44:37;;;;;;;7.15;6.07;;;;;;;;;;10110182;28;20108;-79
2024/02/23 12:49:31;;;;;;;7.22;4.75;;;;;;;;;;10108182;28;20044;-79
2024/02/23 12:54:26;;;;;;;9.93;5.75;;;;;;;;;;10106138;28;20060;-79
2024/02/23 12:59:20;;;;;;;5.63;5.00;;;;;;;;;;10104839;28;20053;-79
2024/02/23 13:04:15;;;;;;;5.03;2.88;;;;;;;;;;10105273;28;20053;-78
2024/02/23 13:09:11;;;;;;;2.55;2.35;;;;;;;;;;10088849;28;20048;-78
2024/02/23 13:14:05;;;;;;;4.05;2.55;;;;;;;;;;10115980;28;20056;-78
2024/02/23 13:18:59;;;;;;;27.48;20.00;;;;;;;;;;10104777;28;20107;-78
2024/02/23 13:23:54;;;;;;;46.42;41.67;;;;;;;;;;10104742;28;20063;-78
2024/02/23 13:28:46;;;;;;;6.53;5.53;;;;;;;;;;10104451;28;20049;-79
2024/02/23 13:33:40;;;;;;;7.13;5.90;;;;;;;;;;10086875;28;20056;-77
2024/02/23 13:38:39;;;;;;;11.63;8.98;;;;;;;;;;10101271;28;20048;-78
2024/02/23 13:43:34;;;;;;;13.30;12.00;;;;;;;;;;10099963;28;20596;-79
2024/02/23 13:48:29;;;;;;;10.55;8.63;;;;;;;;;;10096110;28;20057;-78
2024/02/23 13:53:23;;;;;;;3.75;3.40;;;;;;;;;;10111906;28;20462;-78
2024/02/23 13:58:18;;;;;;;8.38;5.82;;;;;;;;;;10096216;28;20390;-78
2024/02/23 14:03:21;;;;;;;11.63;9.23;;;;;;;;;;10102374;28;20073;-78
2024/02/23 14:08:14;;;;;;;15.93;11.35;;;;;;;;;;10102452;28;20072;-79
2024/02/23 14:13:09;;;;;;;10.15;7.03;;;;;;;;;;10102971;28;20055;-79
2024/02/23 14:18:04;;;;;;;12.32;8.52;;;;;;;;;;10103909;28;20496;-78
2024/02/23 14:22:57;;;;;;;3.40;2.83;;;;;;;;;;10103669;28;20492;-78
2024/02/23 14:27:51;;;;;;;14.10;9.55;;;;;;;;;;10097742;28;20049;-77
2024/02/23 14:32:44;;;;;;;4.25;3.17;;;;;;;;;;10101896;28;20055;-77
2024/02/23 14:37:40;;;;;;;1.42;1.40;;;;;;;;;;10104726;28;20044;-78
2024/02/23 14:42:33;;;;;;;5.72;2.78;;;;;;;;;;10098447;28;20148;-80
2024/02/23 14:47:27;;;;;;;3.00;2.40;;;;;;;;;;10100640;28;20045;-78
2024/02/23 14:52:33;;;;;;;4.53;2.35;;;;;;;;;;10102281;28;20052;-78
2024/02/23 14:57:30;;;;;;;3.70;2.60;;;;;;;;;;10099209;28;20049;-77
2024/02/23 15:02:23;;;;;;;3.35;2.33;;;;;;;;;;10105771;28;20516;-77
2024/02/23 15:07:18;;;;;;;3.63;2.50;;;;;;;;;;10098810;28;20041;-77
2024/02/23 15:12:13;;;;;;;3.20;2.63;;;;;;;;;;10102343;28;20037;-76
2024/02/23 15:17:08;;;;;;;14.57;11.90;;;;;;;;;;10097382;28;20758;-77
2024/02/23 15:22:02;;;;;;;5.68;4.57;;;;;;;;;;10099419;28;20055;-77
2024/02/23 15:26:57;;;;;;;17.20;12.57;;;;;;;;;;10101590;28;20405;-77
2024/02/23 15:31:51;;;;;;;7.68;6.65;;;;;;;;;;10092876;28;20037;-76
2024/02/23 15:36:44;;;;;;;10.52;8.85;;;;;;;;;;10094218;28;20048;-78
2024/02/23 15:41:38;;;;;;;15.38;11.20;;;;;;;;;;10094371;28;20052;-76
2024/02/23 15:46:33;;;;;;;8.82;7.43;;;;;;;;;;10100839;28;20520;-78
2024/02/23 15:51:26;;;;;;;10.50;6.72;;;;;;;;;;10101227;28;20139;-76
2024/02/23 15:56:39;;;;;;;3.30;2.60;;;;;;;;;;10092243;28;20447;-79
2024/02/23 16:01:35;;;;;;;2.58;2.38;;;;;;;;;;10093257;28;20064;-75
2024/02/23 16:06:33;;;;;;;17.83;11.75;;;;;;;;;;10083995;28;20048;-75
2024/02/23 16:11:28;;;;;;;21.48;11.27;;;;;;;;;;10092550;28;20140;-76
2024/02/23 16:16:22;;;;;;;88.85;62.03;;;;;;;;;;10098447;28;20056;-76
2024/02/23 16:21:16;;;;;;;23.77;15.32;;;;;;;;;;10100398;28;20041;-77
2024/02/23 16:26:10;;;;;;;3.33;2.70;;;;;;;;;;10100782;28;20053;-77
2024/02/23 16:31:04;;;;;;;5.40;3.60;;;;;;;;;;10096947;28;20136;-75
2024/02/23 16:36:00;;;;;;;6.07;4.35;;;;;;;;;;10107494;28;20552;-76
2024/02/23 16:40:54;;;;;;;7.63;6.53;;;;;;;;;;10099862;28;20424;-78
2024/02/23 16:45:49;;;;;;;9.43;8.35;;;;;;;;;;10105954;28;20080;-76
2024/02/23 16:50:42;;;;;;;8.15;7.43;;;;;;;;;;10106811;28;20507;-76
2024/02/23 16:55:39;;;;;;;8.85;7.97;;;;;;;;;;10104492;28;20480;-78
2024/02/23 17:00:32;;;;;;;8.88;6.55;;;;;;;;;;10102591;28;20052;-76
2024/02/23 17:05:29;;;;;;;24.45;17.35;;;;;;;;;;10105969;28;20052;-77
2024/02/23 17:10:26;;;;;;;19.08;9.38;;;;;;;;;;10103946;28;20062;-76
2024/02/23 17:15:22;;;;;;;7.53;6.55;;;;;;;;;;10103670;28;20045;-75
2024/02/23 17:20:26;;;;;;;30.25;21.42;;;;;;;;;;10098492;28;20045;-77
2024/02/23 17:25:27;;;;;;;34.75;26.67;;;;;;;;;;10100421;28;20127;-76
2024/02/23 17:30:21;;;;;;;31.25;24.63;;;;;;;;;;10107338;28;20566;-76
2024/02/23 17:35:16;;;;;;;31.75;25.17;;;;;;;;;;10103733;28;20055;-77
2024/02/23 17:40:13;;;;;;;33.65;26.45;;;;;;;;;;10097866;28;20064;-74
2024/02/23 17:45:11;;;;;;;29.10;23.13;;;;;;;;;;10102314;28;20049;-76
2024/02/23 17:50:09;;;;;;;32.17;28.67;;;;;;;;;;10103405;28;20397;-76
2024/02/23 17:55:03;;;;;;;72.63;46.70;;;;;;;;;;10094653;28;20071;-76
2024/02/23 17:59:58;;;;;;;30.65;22.92;;;;;;;;;;10098914;28;20064;-76
2024/02/23 18:04:52;;;;;;;19.00;14.23;;;;;;;;;;10101498;28;20069;-77
2024/02/23 18:09:46;;;;;;;11.00;8.63;;;;;;;;;;10087528;28;20686;-76
2024/02/23 18:14:41;;;;;;;9.23;8.32;;;;;;;;;;10101849;28;20053;-77
2024/02/23 18:19:37;;;;;;;22.08;8.25;;;;;;;;;;10096401;28;20107;-76
2024/02/23 18:24:31;;;;;;;10.73;9.18;;;;;;;;;;10095399;28;20049;-76
2024/02/23 18:29:25;;;;;;;5.68;4.20;;;;;;;;;;10101544;28;20401;-77
2024/02/23 18:34:19;;;;;;;5.90;4.45;;;;;;;;;;10096923;28;20127;-77
2024/02/23 18:39:14;;;;;;;8.05;7.25;;;;;;;;;;10101481;28;20072;-75
2024/02/23 18:44:12;;;;;;;9.82;7.72;;;;;;;;;;10097951;28;20114;-77
2024/02/23 18:49:06;;;;;;;25.13;16.80;;;;;;;;;;10094752;28;20049;-76
2024/02/23 18:53:59;;;;;;;15.02;11.13;;;;;;;;;;10098301;28;20077;-77
2024/02/23 18:58:53;;;;;;;5.55;3.65;;;;;;;;;;10091434;28;20523;-75
2024/02/23 19:03:47;;;;;;;7.32;6.35;;;;;;;;;;10100295;28;20041;-77
2024/02/23 19:08:42;;;;;;;9.07;4.30;;;;;;;;;;10102815;28;20493;-76
2024/02/23 19:13:36;;;;;;;7.45;4.05;;;;;;;;;;10092491;28;20500;-77
2024/02/23 19:18:30;;;;;;;5.10;3.25;;;;;;;;;;10097902;28;20044;-79
2024/02/23 19:23:24;;;;;;;3.65;3.35;;;;;;;;;;10100965;28;20136;-76
2024/02/23 19:28:18;;;;;;;2.53;2.30;;;;;;;;;;10092234;28;20409;-76
2024/02/23 19:33:12;;;;;;;5.15;2.80;;;;;;;;;;10102312;28;20646;-78
2024/02/23 19:38:06;;;;;;;3.40;2.63;;;;;;;;;;10099901;28;20414;-77
2024/02/23 19:43:01;;;;;;;7.20;4.35;;;;;;;;;;10100930;28;20055;-77
2024/02/23 19:47:55;;;;;;;5.65;3.55;;;;;;;;;;10098658;28;20080;-76
2024/02/23 19:52:49;;;;;;;4.30;3.00;;;;;;;;;;10101523;28;20444;-77
2024/02/23 19:57:42;;;;;;;9.35;5.95;;;;;;;;;;10092055;28;20132;-76
2024/02/23 20:02:36;;;;;;;7.07;2.88;;;;;;;;;;10102298;28;20094;-75
2024/02/23 20:07:31;;;;;;;8.45;2.97;;;;;;;;;;10093941;28;20052;-77
2024/02/23 20:12:26;;;;;;;6.32;2.72;;;;;;;;;;10110115;28;20484;-77
2024/02/23 20:17:20;;;;;;;10.10;5.97;;;;;;;;;;10103928;28;20061;-76
2024/02/23 20:22:16;;;;;;;6.82;3.28;;;;;;;;;;10107961;28;20132;-76
2024/02/23 20:27:10;;;;;;;4.60;2.78;;;;;;;;;;10104806;28;20042;-76
2024/02/23 20:32:05;;;;;;;65.30;3.70;;;;;;;;;;10100898;28;20063;-76
2024/02/23 20:37:14;;;;;;;9.60;5.65;;;;;;;;;;10109078;28;20057;-76
2024/02/23 20:42:10;;;;;;;8.35;5.47;;;;;;;;;;10108927;28;20136;-78
2024/02/23 20:47:04;;;;;;;5.22;4.38;;;;;;;;;;10082159;28;20135;-77
2024/02/23 20:51:58;;;;;;;9.85;4.57;;;;;;;;;;10097724;28;20435;-76
2024/02/23 20:56:52;;;;;;;9.23;6.03;;;;;;;;;;10082294;28;20099;-76
2024/02/23 21:01:47;;;;;;;7.20;4.30;;;;;;;;;;10097141;28;20075;-76
2024/02/23 21:06:41;;;;;;;11.38;7.15;;;;;;;;;;10094506;28;20049;-76
2024/02/23 21:11:35;;;;;;;20.38;10.15;;;;;;;;;;10104233;28;20053;-77
2024/02/23 21:16:30;;;;;;;13.80;8.32;;;;;;;;;;10093249;28;20091;-79
2024/02/23 21:21:24;;;;;;;19.02;8.30;;;;;;;;;;10096779;28;20077;-78
2024/02/23 21:26:19;;;;;;;13.13;11.48;;;;;;;;;;10092516;28;20084;-77
2024/02/23 21:31:14;;;;;;;22.23;13.45;;;;;;;;;;10103758;28;20045;-77
2024/02/23 21:36:08;;;;;;;23.27;18.20;;;;;;;;;;10108009;28;20057;-75
2024/02/23 21:41:02;;;;;;;25.80;19.50;;;;;;;;;;10107395;28;20415;-77
2024/02/23 21:45:56;;;;;;;21.17;18.02;;;;;;;;;;10106389;28;20056;-78
2024/02/23 21:50:51;;;;;;;20.20;17.58;;;;;;;;;;10107481;28;20048;-78
2024/02/23 21:55:47;;;;;;;25.55;19.92;;;;;;;;;;10107405;28;20052;-77
2024/02/23 22:00:40;;;;;;;25.70;19.10;;;;;;;;;;10095095;28;20049;-77
2024/02/23 22:05:35;;;;;;;24.83;19.92;;;;;;;;;;10092333;28;20084;-75
2024/02/23 22:10:30;;;;;;;22.60;19.60;;;;;;;;;;10102450;28;20056;-76
2024/02/23 22:15:24;;;;;;;22.63;18.33;;;;;;;;;;10102081;28;20171;-79
2024/02/23 22:20:17;;;;;;;26.10;20.13;;;;;;;;;;10102965;28;20041;-76
2024/02/23 22:25:12;;;;;;;26.77;21.98;;;;;;;;;;10106325;28;20045;-78
2024/02/23 22:30:08;;;;;;;24.60;20.30;;;;;;;;;;10105400;28;20411;-78
2024/02/23 22:35:02;;;;;;;21.23;18.52;;;;;;;;;;10096775;28;20057;-75
2024/02/23 22:39:56;;;;;;;24.38;19.55;;;;;;;;;;10092412;28;20054;-75
2024/02/23 22:44:50;;;;;;;33.50;24.38;;;;;;;;;;10078448;28;20069;-77
2024/02/23 22:49:44;;;;;;;25.15;19.92;;;;;;;;;;10105571;28;20519;-78
2024/02/23 22:54:40;;;;;;;23.10;18.65;;;;;;;;;;10095949;28;20053;-77
2024/02/23 22:59:35;;;;;;;24.42;20.98;;;;;;;;;;10105301;28;20037;-77
2024/02/23 23:04:29;;;;;;;21.58;18.80;;;;;;;;;;10099374;28;20137;-77
2024/02/23 23:09:24;;;;;;;25.05;21.90;;;;;;;;;;10096700;28;20037;-75
2024/02/23 23:14:17;;;;;;;28.27;21.23;;;;;;;;;;10104522;28;20049;-75
2024/02/23 23:19:13;;;;;;;25.30;20.42;;;;;;;;;;10104719;28;20099;-77
2024/02/23 23:24:08;;;;;;;29.60;22.63;;;;;;;;;;10091596;28;20081;-76
2024/02/23 23:29:02;;;;;;;26.55;20.67;;;;;;;;;;10104532;28;20073;-76
2024/02/23 23:33:56;;;;;;;29.67;22.75;;;;;;;;;;10099550;28;20087;-77
2024/02/23 23:38:50;;;;;;;31.10;24.73;;;;;;;;;;10093934;28;20092;-76
2024/02/23 23:43:47;;;;;;;34.50;26.00;;;;;;;;;;10105704;28;20397;-77
2024/02/23 23:48:42;;;;;;;34.38;25.38;;;;;;;;;;10122949;28;20051;-75
2024/02/23 23:53:36;;;;;;;31.35;22.33;;;;;;;;;;10112314;28;20049;-76
2024/02/23 23:58:29;;;;;;;34.33;23.83;;;;;;;;;;10111992;28;20868;-77
